createdAt,value
2017-08-05T00:02:18.571Z,3.57
2017-08-05T00:04:47.666Z,5.27
2017-08-05T00:07:16.909Z,3.50
2017-08-05T00:09:45.959Z,4.13
2017-08-05T00:12:15.937Z,3.60
2017-08-05T00:14:45.779Z,8.93
2017-08-05T00:17:15.037Z,3.60
2017-08-05T00:19:44.863Z,3.17
2017-08-05T00:22:13.952Z,4.30
2017-08-05T00:24:43.271Z,4.17
2017-08-05T00:27:12.336Z,2.90
2017-08-05T00:29:42.157Z,6.47
2017-08-05T00:32:11.979Z,2.27
2017-08-05T00:34:41.048Z,5.63
2017-08-05T00:37:10.114Z,4.00
2017-08-05T00:39:39.194Z,3.60
2017-08-05T00:42:08.259Z,2.57
2017-08-05T00:44:37.345Z,5.13
2017-08-05T00:47:06.392Z,4.57
2017-08-05T00:49:35.427Z,3.93
2017-08-05T00:52:05.262Z,5.80
2017-08-05T00:54:34.316Z,3.50
2017-08-05T00:57:03.412Z,5.70
2017-08-05T00:59:32.445Z,5.00
2017-08-05T01:02:01.488Z,2.17
2017-08-05T01:04:30.549Z,2.97
2017-08-05T01:06:59.614Z,4.27
2017-08-05T01:09:29.457Z,6.87
2017-08-05T01:11:58.524Z,5.63
2017-08-05T01:14:28.336Z,3.43
2017-08-05T01:16:58.178Z,7.33
2017-08-05T01:19:27.203Z,4.07
2017-08-05T01:21:56.291Z,3.33
2017-08-05T01:24:25.351Z,3.20
2017-08-05T01:26:54.423Z,2.53
2017-08-05T01:29:24.230Z,4.20
2017-08-05T01:31:54.092Z,3.13
2017-08-05T01:34:23.132Z,2.47
2017-08-05T01:36:52.228Z,3.37
2017-08-05T01:39:21.294Z,3.10
2017-08-05T01:41:50.343Z,2.07
2017-08-05T01:44:19.404Z,5.80
2017-08-05T01:46:48.467Z,3.70
2017-08-05T01:49:17.544Z,3.63
2017-08-05T01:51:46.636Z,5.07
2017-08-05T01:54:15.729Z,2.20
2017-08-05T01:56:44.792Z,2.77
2017-08-05T01:59:14.656Z,5.40
2017-08-05T02:01:43.705Z,2.63
2017-08-05T02:04:13.528Z,5.63
2017-08-05T02:06:42.599Z,3.73
2017-08-05T02:09:11.644Z,3.90
2017-08-05T02:11:41.525Z,3.00
2017-08-05T02:14:11.427Z,4.70
2017-08-05T02:16:40.463Z,5.63
2017-08-05T02:19:09.518Z,4.90
2017-08-05T02:21:39.366Z,2.43
2017-08-05T02:24:08.436Z,5.23
2017-08-05T02:26:37.488Z,3.20
2017-08-05T02:29:06.529Z,4.10
2017-08-05T02:31:35.587Z,10.23
2017-08-05T02:34:04.638Z,5.77
2017-08-05T02:36:33.715Z,3.83
2017-08-05T02:39:03.540Z,4.70
2017-08-05T02:41:32.604Z,4.23
2017-08-05T02:44:02.453Z,3.00
2017-08-05T02:46:31.506Z,8.90
2017-08-05T02:49:00.572Z,2.33
2017-08-05T02:51:29.635Z,5.20
2017-08-05T02:53:58.707Z,2.97
2017-08-05T02:56:28.600Z,6.23
2017-08-05T02:58:57.671Z,4.30
2017-08-05T03:01:26.711Z,4.07
2017-08-05T03:03:57.343Z,4.20
2017-08-05T03:06:26.395Z,2.90
2017-08-05T03:08:55.456Z,5.30
2017-08-05T03:11:24.518Z,2.40
2017-08-05T03:13:55.269Z,5.30
2017-08-05T03:16:24.324Z,3.40
2017-08-05T03:18:53.383Z,3.40
2017-08-05T03:21:22.455Z,5.03
2017-08-05T03:23:52.250Z,5.83
2017-08-05T03:26:22.092Z,4.77
2017-08-05T03:28:51.164Z,5.70
2017-08-05T03:31:21.005Z,5.20
2017-08-05T03:33:50.046Z,3.70
2017-08-05T03:36:19.225Z,8.37
2017-08-05T03:38:48.267Z,5.37
2017-08-05T03:41:18.090Z,3.00
2017-08-05T03:43:48.975Z,3.53
2017-08-05T03:46:18.116Z,6.80
2017-08-05T03:48:47.171Z,5.10
2017-08-05T03:51:16.254Z,5.23
2017-08-05T03:53:45.301Z,5.87
2017-08-05T03:56:14.384Z,4.30
2017-08-05T03:58:44.212Z,4.90
2017-08-05T04:01:13.276Z,5.47
2017-08-05T04:03:42.335Z,6.03
2017-08-05T04:06:11.437Z,9.17
2017-08-05T04:08:40.495Z,3.10
2017-08-05T04:11:09.540Z,4.13
2017-08-05T04:13:38.591Z,5.10
2017-08-05T04:16:07.752Z,4.80
2017-08-05T04:18:36.791Z,7.37
2017-08-05T04:21:05.839Z,4.10
2017-08-05T04:23:35.681Z,3.73
2017-08-05T04:26:04.715Z,5.33
2017-08-05T04:28:33.776Z,4.10
2017-08-05T04:31:02.851Z,5.10
2017-08-05T04:33:32.662Z,4.20
2017-08-05T04:36:02.519Z,4.37
2017-08-05T04:38:32.317Z,8.20
2017-08-05T04:41:01.376Z,9.67
2017-08-05T04:43:31.225Z,4.00
2017-08-05T04:46:00.285Z,5.70
2017-08-05T04:48:29.339Z,8.93
2017-08-05T04:50:58.434Z,6.27
2017-08-05T04:53:27.547Z,6.20
2017-08-05T04:55:56.586Z,7.47
2017-08-05T04:58:25.665Z,5.63
2017-08-05T05:00:55.502Z,4.63
2017-08-05T05:03:24.555Z,8.23
2017-08-05T05:05:53.624Z,4.60
2017-08-05T05:08:22.672Z,12.27
2017-08-05T05:10:51.712Z,9.50
2017-08-05T05:13:20.799Z,9.10
2017-08-05T05:15:49.833Z,8.10
2017-08-05T05:18:18.887Z,9.83
2017-08-05T05:20:47.963Z,5.33
2017-08-05T05:23:17.004Z,6.80
2017-08-05T05:25:46.064Z,7.83
2017-08-05T05:28:15.113Z,9.70
2017-08-05T05:30:44.976Z,10.20
2017-08-05T05:33:14.043Z,7.77
2017-08-05T05:35:43.122Z,7.60
2017-08-05T05:38:13.303Z,6.80
2017-08-05T05:40:42.371Z,7.33
2017-08-05T05:43:11.423Z,6.60
2017-08-05T05:45:40.463Z,12.93
2017-08-05T05:48:09.544Z,5.67
2017-08-05T05:50:38.620Z,11.40
2017-08-05T05:53:07.700Z,8.13
2017-08-05T05:55:36.973Z,7.00
2017-08-05T05:58:06.073Z,6.50
2017-08-05T06:00:35.331Z,8.27
2017-08-05T06:03:04.388Z,9.20
2017-08-05T06:05:33.449Z,9.50
2017-08-05T06:08:02.510Z,11.87
2017-08-05T06:10:31.575Z,8.87
2017-08-05T06:13:00.647Z,12.80
2017-08-05T06:15:30.339Z,9.30
2017-08-05T06:17:59.425Z,8.33
2017-08-05T06:20:28.476Z,7.57
2017-08-05T06:22:58.307Z,9.80
2017-08-05T06:25:27.379Z,7.00
2017-08-05T06:27:57.192Z,9.03
2017-08-05T06:30:27.024Z,10.70
2017-08-05T06:32:56.068Z,9.07
2017-08-05T06:35:25.111Z,8.10
2017-08-05T06:37:54.177Z,10.20
2017-08-05T06:40:23.261Z,7.87
2017-08-05T06:42:52.338Z,10.13
2017-08-05T06:45:21.683Z,7.37
2017-08-05T06:47:50.775Z,12.03
2017-08-05T06:50:19.957Z,8.83
2017-08-05T06:52:49.663Z,8.67
2017-08-05T06:55:18.737Z,11.57
2017-08-05T06:57:47.774Z,7.53
2017-08-05T07:00:17.638Z,7.10
2017-08-05T07:02:46.714Z,9.13
2017-08-05T07:05:15.807Z,6.77
2017-08-05T07:07:45.604Z,10.20
2017-08-05T07:10:15.469Z,10.57
2017-08-05T07:12:44.552Z,8.07
2017-08-05T07:15:13.624Z,7.70
2017-08-05T07:17:42.664Z,7.30
2017-08-05T07:20:11.744Z,8.23
2017-08-05T07:22:40.803Z,6.67
2017-08-05T07:25:10.623Z,6.53
2017-08-05T07:27:39.683Z,6.47
2017-08-05T07:30:09.294Z,9.77
2017-08-05T07:32:38.364Z,8.30
2017-08-05T07:35:07.427Z,7.63
2017-08-05T07:37:36.480Z,9.03
2017-08-05T07:40:05.546Z,5.20
2017-08-05T07:42:34.590Z,7.20
2017-08-05T07:45:03.677Z,6.77
2017-08-05T07:47:32.725Z,5.50
2017-08-05T07:50:01.768Z,5.13
2017-08-05T07:52:30.824Z,8.03
2017-08-05T07:54:59.890Z,7.27
2017-08-05T07:57:28.934Z,7.60
2017-08-05T07:59:58.788Z,5.77
2017-08-05T08:02:27.841Z,7.20
2017-08-05T08:04:56.935Z,6.60
2017-08-05T08:07:25.976Z,6.30
2017-08-05T08:09:55.073Z,11.10
2017-08-05T08:12:24.157Z,8.60
2017-08-05T08:14:53.219Z,7.23
2017-08-05T08:17:22.584Z,7.23
2017-08-05T08:19:51.633Z,8.10
2017-08-05T08:22:20.693Z,8.80
2017-08-05T08:24:49.788Z,9.40
2017-08-05T08:27:18.843Z,7.00
2017-08-05T08:29:47.906Z,6.60
2017-08-05T08:32:17.743Z,7.60
2017-08-05T08:34:46.794Z,5.47
2017-08-05T08:37:16.444Z,6.53
2017-08-05T08:39:45.508Z,5.70
2017-08-05T08:42:15.329Z,5.80
2017-08-05T08:44:46.547Z,5.50
2017-08-05T08:47:15.609Z,5.20
2017-08-05T08:49:44.661Z,5.30
2017-08-05T08:52:14.483Z,6.17
2017-08-05T08:54:43.544Z,7.07
2017-08-05T08:57:12.829Z,4.40
2017-08-05T08:59:42.275Z,4.93
2017-08-05T09:02:12.135Z,6.50
2017-08-05T09:04:41.206Z,5.93
2017-08-05T09:07:11.020Z,5.87
2017-08-05T09:09:40.082Z,4.20
2017-08-05T09:12:09.186Z,5.40
2017-08-05T09:14:38.204Z,3.73
2017-08-05T09:17:07.273Z,4.90
2017-08-05T09:19:37.115Z,3.30
2017-08-05T09:22:06.222Z,4.40
2017-08-05T09:24:35.265Z,3.87
2017-08-05T09:27:04.316Z,3.30
2017-08-05T09:29:33.384Z,5.70
2017-08-05T09:32:02.429Z,3.50
2017-08-05T09:34:31.495Z,4.40
2017-08-05T09:37:00.564Z,4.13
2017-08-05T09:39:29.644Z,3.40
2017-08-05T09:41:59.464Z,4.23
2017-08-05T09:44:29.301Z,3.63
2017-08-05T09:46:58.368Z,4.70
2017-08-05T09:49:28.195Z,4.20
2017-08-05T09:51:57.288Z,4.87
2017-08-05T09:54:26.335Z,4.07
2017-08-05T09:56:55.425Z,4.77
2017-08-05T09:59:24.509Z,4.57
2017-08-05T10:01:53.593Z,3.90
2017-08-05T10:04:22.669Z,3.73
2017-08-05T10:06:51.744Z,6.60
2017-08-05T10:09:21.606Z,3.50
2017-08-05T10:11:50.657Z,3.10
2017-08-05T10:14:20.495Z,3.63
2017-08-05T10:16:49.551Z,4.00
2017-08-05T10:19:19.363Z,3.60
2017-08-05T10:21:49.197Z,3.70
2017-08-05T10:24:18.251Z,3.40
2017-08-05T10:26:47.342Z,4.60
2017-08-05T10:29:16.423Z,3.00
2017-08-05T10:31:45.474Z,3.00
2017-08-05T10:34:14.575Z,3.27
2017-08-05T10:36:44.394Z,3.70
2017-08-05T10:39:13.422Z,3.53
2017-08-05T10:41:42.483Z,2.90
2017-08-05T10:44:11.578Z,3.00
2017-08-05T10:46:41.387Z,3.40
2017-08-05T10:49:10.428Z,7.17
2017-08-05T10:51:39.503Z,3.40
2017-08-05T10:54:08.561Z,4.00
2017-08-05T10:56:38.410Z,4.27
2017-08-05T10:59:07.487Z,4.30
2017-08-05T11:01:36.558Z,4.13
2017-08-05T11:04:06.421Z,5.83
2017-08-05T11:06:35.502Z,3.53
2017-08-05T11:09:04.576Z,4.70
2017-08-05T11:11:33.611Z,5.73
2017-08-05T11:14:02.727Z,8.23
2017-08-05T11:16:31.780Z,9.23
2017-08-05T11:19:00.834Z,10.20
2017-08-05T11:21:30.695Z,14.90
2017-08-05T11:23:59.784Z,21.73
2017-08-05T11:26:28.882Z,17.87
2017-08-05T11:28:57.915Z,17.70
2017-08-05T11:31:26.994Z,17.13
2017-08-05T11:33:56.070Z,16.33
2017-08-05T11:36:25.123Z,16.10
2017-08-05T11:38:54.999Z,16.10
2017-08-05T11:41:24.059Z,13.90
2017-08-05T11:43:53.181Z,13.53
2017-08-05T11:46:22.320Z,13.77
2017-08-05T11:48:52.187Z,12.03
2017-08-05T11:51:21.269Z,12.20
2017-08-05T11:53:50.423Z,10.83
2017-08-05T11:56:20.261Z,10.97
2017-08-05T11:58:50.261Z,10.13
2017-08-05T12:01:20.097Z,10.50
2017-08-05T12:03:49.185Z,7.40
2017-08-05T12:06:18.984Z,8.77
2017-08-05T12:08:48.834Z,9.63
2017-08-05T12:11:17.888Z,10.67
2017-08-05T12:13:47.699Z,10.50
2017-08-05T12:16:17.556Z,10.00
2017-08-05T12:18:46.650Z,10.30
2017-08-05T12:21:15.752Z,9.50
2017-08-05T12:23:44.799Z,10.60
2017-08-05T12:26:14.647Z,10.37
2017-08-05T12:28:43.701Z,12.73
2017-08-05T12:31:13.530Z,14.50
2017-08-05T12:33:43.416Z,14.50
2017-08-05T12:36:12.490Z,13.03
2017-08-05T12:38:41.533Z,14.03
2017-08-05T12:41:11.369Z,12.83
2017-08-05T12:43:40.432Z,12.20
2017-08-05T12:46:10.302Z,13.40
2017-08-05T12:48:39.615Z,11.37
2017-08-05T12:51:08.697Z,12.07
2017-08-05T12:53:37.775Z,11.43
2017-08-05T12:56:06.836Z,11.63
2017-08-05T12:58:36.741Z,11.53
2017-08-05T13:01:05.793Z,12.37
2017-08-05T13:03:34.881Z,13.97
2017-08-05T13:06:03.981Z,17.10
2017-08-05T13:08:33.073Z,22.73
2017-08-05T13:11:02.157Z,24.80
2017-08-05T13:13:31.253Z,19.33
2017-08-05T13:16:00.340Z,21.30
2017-08-05T13:18:30.176Z,20.60
2017-08-05T13:20:59.243Z,21.13
2017-08-05T13:23:28.288Z,20.23
2017-08-05T13:25:57.364Z,19.00
2017-08-05T13:28:26.439Z,18.70
2017-08-05T13:30:55.503Z,14.67
2017-08-05T13:33:25.345Z,13.93
2017-08-05T13:35:54.433Z,13.47
2017-08-05T13:38:23.524Z,9.83
2017-08-05T13:40:53.352Z,8.47
2017-08-05T13:43:22.385Z,9.73
2017-08-05T13:45:51.479Z,10.60
2017-08-05T13:48:20.553Z,8.57
2017-08-05T13:50:49.608Z,5.27
2017-08-05T13:53:19.444Z,3.13
2017-08-05T13:55:48.507Z,4.30
2017-08-05T13:58:18.368Z,4.93
2017-08-05T14:00:47.445Z,6.87
2017-08-05T14:03:16.553Z,10.07
2017-08-05T14:05:45.623Z,9.33
2017-08-05T14:08:14.783Z,10.47
2017-08-05T14:10:44.020Z,12.83
2017-08-05T14:13:13.108Z,12.87
2017-08-05T14:15:42.953Z,10.90
2017-08-05T14:18:12.033Z,11.33
2017-08-05T14:20:41.095Z,12.80
2017-08-05T14:23:10.947Z,12.63
2017-08-05T14:25:40.013Z,13.20
2017-08-05T14:28:09.884Z,12.63
2017-08-05T14:30:38.943Z,14.10
2017-08-05T14:33:08.037Z,14.00
2017-08-05T14:35:37.102Z,12.60
2017-08-05T14:38:06.960Z,11.47
2017-08-05T14:40:36.044Z,9.20
2017-08-05T14:43:05.076Z,8.73
2017-08-05T14:45:34.119Z,7.90
2017-08-05T14:48:03.180Z,7.77
2017-08-05T14:50:32.287Z,8.20
2017-08-05T14:53:01.359Z,10.03
2017-08-05T14:55:30.402Z,9.50
2017-08-05T14:57:59.485Z,11.00
2017-08-05T15:00:29.341Z,9.83
2017-08-05T15:02:58.384Z,12.93
2017-08-05T15:05:28.251Z,8.20
2017-08-05T15:07:57.303Z,7.77
2017-08-05T15:10:27.136Z,8.00
2017-08-05T15:12:56.198Z,8.87
2017-08-05T15:15:26.038Z,8.00
2017-08-05T15:17:55.106Z,15.13
2017-08-05T15:20:24.184Z,9.90
2017-08-05T15:22:53.238Z,12.63
2017-08-05T15:25:22.355Z,8.30
2017-08-05T15:27:51.408Z,12.53
2017-08-05T15:30:21.090Z,8.20
2017-08-05T15:32:50.154Z,8.27
2017-08-05T15:35:19.218Z,8.23
2017-08-05T15:37:55.475Z,8.23
2017-08-05T15:40:30.109Z,7.53
2017-08-05T15:42:59.163Z,7.10
2017-08-05T15:45:28.242Z,6.60
2017-08-05T15:47:57.266Z,6.60
2017-08-05T15:50:27.128Z,7.70
2017-08-05T15:52:56.185Z,10.00
2017-08-05T15:55:25.272Z,10.97
2017-08-05T15:57:55.090Z,9.87
2017-08-05T16:00:24.148Z,11.07
2017-08-05T16:02:53.211Z,10.20
2017-08-05T16:05:22.299Z,13.43
2017-08-05T16:07:51.396Z,10.40
2017-08-05T16:10:20.458Z,14.57
2017-08-05T16:12:50.282Z,12.40
2017-08-05T16:15:19.417Z,11.50
2017-08-05T16:17:48.453Z,10.27
2017-08-05T16:20:17.526Z,8.90
2017-08-05T16:22:46.600Z,9.90
2017-08-05T16:25:15.900Z,11.77
2017-08-05T16:27:45.000Z,11.10
2017-08-05T16:30:14.072Z,9.03
2017-08-05T16:32:43.133Z,9.47
2017-08-05T16:35:12.232Z,8.73
2017-08-05T16:37:41.332Z,8.13
2017-08-05T16:40:11.152Z,7.93
2017-08-05T16:42:40.208Z,8.70
2017-08-05T16:45:09.307Z,10.93
2017-08-05T16:47:38.381Z,8.57
2017-08-05T16:50:07.445Z,9.50
2017-08-05T16:52:36.555Z,8.67
2017-08-05T16:55:05.628Z,8.37
2017-08-05T16:57:34.699Z,8.60
2017-08-05T17:00:04.344Z,8.60
2017-08-05T17:02:33.401Z,9.20
2017-08-05T17:05:02.469Z,10.20
2017-08-05T17:07:31.521Z,10.67
2017-08-05T17:10:00.640Z,9.53
2017-08-05T17:12:29.735Z,11.97
2017-08-05T17:14:58.807Z,11.43
2017-08-05T17:17:27.866Z,12.63
2017-08-05T17:19:56.931Z,12.93
2017-08-05T17:22:26.018Z,11.67
2017-08-05T17:24:55.075Z,9.50
2017-08-05T17:27:24.152Z,11.30
2017-08-05T17:29:53.990Z,10.03
2017-08-05T17:32:23.113Z,11.60
2017-08-05T17:34:52.169Z,11.50
2017-08-05T17:37:21.237Z,10.37
2017-08-05T17:39:51.221Z,11.23
2017-08-05T17:42:21.775Z,12.20
2017-08-05T17:44:50.826Z,13.50
2017-08-05T17:47:19.885Z,10.47
2017-08-05T17:49:48.979Z,10.33
2017-08-05T17:52:18.036Z,12.93
2017-08-05T17:54:47.146Z,12.00
2017-08-05T17:57:16.188Z,10.50
2017-08-05T17:59:45.276Z,9.97
2017-08-05T18:02:15.414Z,12.13
2017-08-05T18:04:45.252Z,11.77
2017-08-05T18:07:14.521Z,10.10
2017-08-05T18:09:43.603Z,11.20
2017-08-05T18:12:13.496Z,12.00
2017-08-05T18:14:42.811Z,11.07
2017-08-05T18:17:12.665Z,10.27
2017-08-05T18:19:41.732Z,9.83
2017-08-05T18:22:10.809Z,10.20
2017-08-05T18:24:40.684Z,10.80
2017-08-05T18:27:09.749Z,12.17
2017-08-05T18:29:38.805Z,10.67
2017-08-05T18:32:07.905Z,10.40
2017-08-05T18:34:36.995Z,10.90
2017-08-05T18:37:06.052Z,18.73
2017-08-05T18:39:35.676Z,12.47
2017-08-05T18:42:04.735Z,13.20
2017-08-05T18:44:33.804Z,12.53
2017-08-05T18:47:03.650Z,12.77
2017-08-05T18:49:32.715Z,13.43
2017-08-05T18:52:01.801Z,14.90
2017-08-05T18:54:31.634Z,13.03
2017-08-05T18:57:00.740Z,12.87
2017-08-05T18:59:30.568Z,11.40
2017-08-05T19:01:59.623Z,13.37
2017-08-05T19:04:29.469Z,14.00
2017-08-05T19:06:58.521Z,12.87
2017-08-05T19:09:27.591Z,12.70
2017-08-05T19:11:56.651Z,11.97
2017-08-05T19:14:25.738Z,10.10
2017-08-05T19:16:55.623Z,13.10
2017-08-05T19:19:24.655Z,11.00
2017-08-05T19:21:53.743Z,12.87
2017-08-05T19:24:22.780Z,12.07
2017-08-05T19:26:52.276Z,12.13
2017-08-05T19:29:21.545Z,12.53
2017-08-05T19:31:53.314Z,14.30
2017-08-05T19:34:24.552Z,11.87
2017-08-05T19:36:53.770Z,11.67
2017-08-05T19:39:23.921Z,12.73
2017-08-05T19:41:53.218Z,10.17
2017-08-05T19:44:23.093Z,10.43
2017-08-05T19:46:52.290Z,11.27
2017-08-05T19:49:24.058Z,12.73
2017-08-05T19:51:56.055Z,13.77
2017-08-05T19:54:25.258Z,9.23
2017-08-05T19:56:56.380Z,9.13
2017-08-05T19:59:26.460Z,8.93
2017-08-05T20:01:56.346Z,10.27
2017-08-05T20:04:25.442Z,10.37
2017-08-05T20:06:55.130Z,11.33
2017-08-05T20:09:27.650Z,11.83
2017-08-05T20:11:57.619Z,10.23
2017-08-05T20:14:26.828Z,14.67
2017-08-05T20:16:57.780Z,11.27
2017-08-05T20:19:28.199Z,12.10
2017-08-05T20:21:59.643Z,10.67
2017-08-05T20:24:28.761Z,13.53
2017-08-05T20:27:01.939Z,13.00
2017-08-05T20:29:30.967Z,13.57
2017-08-05T20:32:02.950Z,13.20
2017-08-05T20:34:34.212Z,16.63
2017-08-05T20:37:06.952Z,14.33
2017-08-05T20:39:37.154Z,13.40
2017-08-05T20:42:08.787Z,12.77
2017-08-05T20:44:38.246Z,12.67
2017-08-05T20:47:08.533Z,14.13
2017-08-05T20:49:37.774Z,17.37
2017-08-05T20:52:07.010Z,13.23
2017-08-05T20:54:38.075Z,13.60
2017-08-05T20:57:07.954Z,14.37
2017-08-05T20:59:37.079Z,12.53
2017-08-05T21:02:06.248Z,18.87
2017-08-05T21:04:37.213Z,12.97
2017-08-05T21:07:07.704Z,19.20
2017-08-05T21:09:36.959Z,13.60
2017-08-05T21:12:06.590Z,14.70
2017-08-05T21:14:38.380Z,14.37
2017-08-05T21:17:09.081Z,15.30
2017-08-05T21:19:39.245Z,15.00
2017-08-05T21:22:09.962Z,17.30
2017-08-05T21:24:41.636Z,14.50
2017-08-05T21:27:12.695Z,17.00
2017-08-05T21:29:42.457Z,14.60
2017-08-05T21:32:12.775Z,15.40
2017-08-05T21:34:42.003Z,15.20
2017-08-05T21:37:11.216Z,16.90
2017-08-05T21:39:40.269Z,17.50
2017-08-05T21:42:09.415Z,20.73
2017-08-05T21:44:38.639Z,17.87
2017-08-05T21:47:10.872Z,17.27
2017-08-05T21:49:39.978Z,18.40
2017-08-05T21:52:09.218Z,19.03
2017-08-05T21:54:39.428Z,22.93
2017-08-05T21:57:11.050Z,19.60
2017-08-05T21:59:40.285Z,22.07
2017-08-05T22:02:09.570Z,20.60
2017-08-05T22:04:38.907Z,19.87
2017-08-05T22:07:08.181Z,22.30
2017-08-05T22:09:37.286Z,21.83
2017-08-05T22:12:06.586Z,22.43
2017-08-05T22:14:36.288Z,20.90
2017-08-05T22:17:05.832Z,20.93
2017-08-05T22:19:35.123Z,24.00
2017-08-05T22:22:05.887Z,18.53
2017-08-05T22:24:37.947Z,20.90
2017-08-05T22:27:07.699Z,20.20
2017-08-05T22:29:37.049Z,20.53
2017-08-05T22:32:06.388Z,24.20
2017-08-05T22:34:36.794Z,19.60
2017-08-05T22:37:06.247Z,19.60
2017-08-05T22:39:35.557Z,24.00
2017-08-05T22:42:06.395Z,21.07
2017-08-05T22:44:38.639Z,19.50
2017-08-05T22:47:09.499Z,19.73
2017-08-05T22:49:38.829Z,28.30
2017-08-05T22:52:08.081Z,18.53
2017-08-05T22:54:37.432Z,17.90
2017-08-05T22:57:06.629Z,18.03
2017-08-05T22:59:35.914Z,22.93
2017-08-05T23:02:07.613Z,18.90
2017-08-05T23:04:37.932Z,21.33
2017-08-05T23:07:07.260Z,19.17
2017-08-05T23:09:36.510Z,18.43
2017-08-05T23:12:05.805Z,20.40
2017-08-05T23:14:36.243Z,22.73
2017-08-05T23:17:05.504Z,19.33
2017-08-05T23:19:34.731Z,20.60
2017-08-05T23:22:04.023Z,18.60
2017-08-05T23:24:33.344Z,20.97
2017-08-05T23:27:02.587Z,19.07
2017-08-05T23:29:31.913Z,20.33
2017-08-05T23:32:01.134Z,17.57
2017-08-05T23:34:30.279Z,21.03
2017-08-05T23:37:00.442Z,21.03
2017-08-05T23:39:30.792Z,17.93
2017-08-05T23:42:00.052Z,22.80
2017-08-05T23:44:30.202Z,24.10
2017-08-05T23:47:02.168Z,17.77
2017-08-05T23:49:32.628Z,23.47
2017-08-05T23:52:01.963Z,21.43
2017-08-05T23:54:31.314Z,25.97
2017-08-05T23:57:00.758Z,20.00
2017-08-05T23:59:31.278Z,22.97
